Terminal Aerodrome Forecast
Issued by NWS Jackson, MS

Home | Current Version | Previous Version | Text Only | Print | Product List | Glossary On
Versions: 1 2 3 4 5 6 7 8 9 10 11 12 13 14 15 16
705
FTUS44 KJAN 230529
TAFMEI
TAF
KMEI 230529Z 2306/2406 26007KT P6SM SKC
     FM231500 30010G17KT P6SM FEW250
     FM240000 32006KT P6SM SKC=

USA.gov is the U.S. government's official web portal to all federal, state and local government web resources and services.